createdAt,value
2022-11-23T00:01:22.753Z,4.20
2022-11-23T00:03:52.247Z,4.67
2022-11-23T00:06:21.369Z,5.10
2022-11-23T00:08:49.514Z,4.40
2022-11-23T00:11:17.760Z,4.80
2022-11-23T00:13:45.197Z,5.03
2022-11-23T00:16:15.750Z,4.33
2022-11-23T00:18:43.332Z,4.10
2022-11-23T00:21:16.018Z,3.70
2022-11-23T00:23:44.211Z,4.17
2022-11-23T00:26:12.847Z,4.30
2022-11-23T00:28:40.783Z,3.83
2022-11-23T00:31:14.910Z,4.40
2022-11-23T00:33:47.924Z,4.10
2022-11-23T00:36:16.575Z,3.93
2022-11-23T00:38:44.449Z,4.00
2022-11-23T00:41:14.707Z,4.27
2022-11-23T00:43:42.875Z,4.03
2022-11-23T00:46:27.426Z,3.87
2022-11-23T00:48:56.575Z,4.17
2022-11-23T00:51:31.494Z,4.50
2022-11-23T00:54:02.332Z,5.33
2022-11-23T00:56:32.115Z,5.37
2022-11-23T00:59:01.590Z,4.27
2022-11-23T01:01:33.795Z,4.90
2022-11-23T01:04:03.432Z,4.13
2022-11-23T01:06:36.045Z,4.07
2022-11-23T01:09:14.612Z,3.40
2022-11-23T01:11:42.370Z,3.50
2022-11-23T01:14:09.671Z,3.73
2022-11-23T01:16:41.237Z,3.30
2022-11-23T01:19:17.970Z,3.80
2022-11-23T01:21:48.455Z,3.77
2022-11-23T01:24:21.783Z,3.90
2022-11-23T01:26:56.071Z,4.00
2022-11-23T01:29:24.182Z,3.90
2022-11-23T01:31:51.335Z,3.60
2022-11-23T01:34:18.849Z,4.20
2022-11-23T01:36:46.098Z,3.90
2022-11-23T01:39:13.715Z,3.87
2022-11-23T01:41:43.891Z,3.40
2022-11-23T01:44:28.359Z,4.00
2022-11-23T01:46:59.928Z,3.70
2022-11-23T01:49:37.963Z,4.10
2022-11-23T01:52:20.058Z,4.20
2022-11-23T01:54:52.533Z,3.90
2022-11-23T01:57:28.384Z,4.03
2022-11-23T01:59:56.223Z,4.07
2022-11-23T02:02:25.466Z,4.70
2022-11-23T02:04:55.185Z,4.27
2022-11-23T02:07:24.260Z,4.23
2022-11-23T02:09:52.526Z,3.80
2022-11-23T02:12:19.789Z,3.70
2022-11-23T02:14:47.225Z,3.73
2022-11-23T02:17:14.734Z,3.30
2022-11-23T02:20:00.993Z,4.03
2022-11-23T02:23:05.820Z,4.00
2022-11-23T02:25:43.095Z,4.20
2022-11-23T02:28:14.701Z,4.10
2022-11-23T02:30:44.199Z,3.33
2022-11-23T02:33:13.397Z,3.50
2022-11-23T02:35:57.117Z,3.43
2022-11-23T02:38:27.966Z,3.33
2022-11-23T02:40:57.919Z,3.57
2022-11-23T02:43:25.553Z,3.70
2022-11-23T02:46:03.446Z,3.80
2022-11-23T02:48:30.655Z,3.50
2022-11-23T02:50:57.834Z,3.67
2022-11-23T02:53:25.094Z,3.40
2022-11-23T02:55:54.475Z,3.57
2022-11-23T02:58:22.042Z,3.80
2022-11-23T03:00:49.298Z,3.70
2022-11-23T03:03:20.364Z,3.23
2022-11-23T03:05:47.553Z,3.40
2022-11-23T03:08:14.923Z,3.33
2022-11-23T03:10:44.430Z,4.10
2022-11-23T03:13:11.979Z,3.60
2022-11-23T03:15:41.441Z,3.30
2022-11-23T03:18:10.143Z,3.40
2022-11-23T03:20:38.798Z,3.53
2022-11-23T03:23:06.247Z,3.33
2022-11-23T03:25:33.582Z,3.17
2022-11-23T03:28:00.766Z,3.10
2022-11-23T03:30:28.190Z,3.43
2022-11-23T03:32:55.380Z,3.20
2022-11-23T03:35:25.097Z,3.20
2022-11-23T03:38:30.741Z,3.10
2022-11-23T03:40:59.451Z,3.17
2022-11-23T03:43:35.031Z,2.80
2022-11-23T03:46:02.297Z,3.10
2022-11-23T03:48:29.471Z,2.97
2022-11-23T03:50:56.658Z,3.20
2022-11-23T03:53:23.829Z,3.07
2022-11-23T03:55:51.815Z,2.90
2022-11-23T03:58:20.137Z,3.07
2022-11-23T04:00:48.091Z,3.10
2022-11-23T04:03:16.203Z,2.53
2022-11-23T04:06:15.727Z,2.97
2022-11-23T04:09:03.451Z,2.90
2022-11-23T04:11:42.715Z,2.70
2022-11-23T04:14:09.977Z,3.23
2022-11-23T04:16:37.409Z,2.70
2022-11-23T04:19:05.233Z,3.10
2022-11-23T04:21:32.443Z,2.90
2022-11-23T04:23:59.810Z,2.80
2022-11-23T04:26:28.554Z,2.60
2022-11-23T04:28:55.708Z,2.40
2022-11-23T04:31:22.990Z,2.57
2022-11-23T04:34:04.779Z,2.60
2022-11-23T04:36:33.002Z,2.73
2022-11-23T04:39:00.890Z,2.47
2022-11-23T04:41:36.150Z,2.47
2022-11-23T04:44:05.378Z,2.80
2022-11-23T04:46:35.499Z,2.90
2022-11-23T04:49:09.529Z,2.57
2022-11-23T04:51:37.187Z,2.57
2022-11-23T04:54:04.631Z,2.50
2022-11-23T04:56:40.409Z,2.70
2022-11-23T04:59:07.973Z,2.30
2022-11-23T05:01:35.645Z,2.10
2022-11-23T05:04:21.695Z,2.87
2022-11-23T05:06:50.232Z,2.40
2022-11-23T05:09:18.806Z,3.10
2022-11-23T05:12:02.406Z,2.60
2022-11-23T05:14:31.721Z,2.70
2022-11-23T05:16:59.044Z,2.70
2022-11-23T05:19:26.830Z,3.00
2022-11-23T05:21:54.290Z,2.90
2022-11-23T05:24:23.867Z,2.67
2022-11-23T05:27:04.637Z,3.00
2022-11-23T05:29:31.932Z,2.50
2022-11-23T05:31:59.282Z,3.20
2022-11-23T05:34:26.463Z,2.70
2022-11-23T05:36:54.668Z,2.60
2022-11-23T05:39:24.686Z,2.73
2022-11-23T05:41:53.782Z,2.77
2022-11-23T05:44:37.901Z,2.50
2022-11-23T05:47:08.224Z,3.10
2022-11-23T05:49:36.917Z,2.60
2022-11-23T05:52:06.088Z,2.67
2022-11-23T05:54:33.830Z,2.63
2022-11-23T05:57:15.665Z,2.80
2022-11-23T05:59:44.741Z,2.50
2022-11-23T06:02:19.223Z,2.83
2022-11-23T06:04:49.509Z,2.67
2022-11-23T06:07:23.565Z,2.83
2022-11-23T06:10:12.060Z,2.90
2022-11-23T06:12:41.744Z,2.80
2022-11-23T06:15:13.586Z,3.20
2022-11-23T06:17:41.059Z,3.33
2022-11-23T06:20:13.533Z,2.93
2022-11-23T06:22:44.520Z,3.37
2022-11-23T06:25:11.766Z,3.23
2022-11-23T06:27:41.347Z,3.70
2022-11-23T06:30:24.186Z,5.97
2022-11-23T06:32:51.885Z,5.40
2022-11-23T06:35:21.075Z,5.00
2022-11-23T06:37:50.206Z,4.23
2022-11-23T06:40:17.541Z,4.10
2022-11-23T06:42:44.885Z,3.80
2022-11-23T06:45:23.304Z,4.30
2022-11-23T06:47:57.094Z,4.40
2022-11-23T06:50:24.753Z,3.23
2022-11-23T06:52:58.598Z,3.27
2022-11-23T06:55:42.887Z,2.87
2022-11-23T06:58:11.655Z,2.60
2022-11-23T07:00:39.090Z,3.07
2022-11-23T07:03:06.588Z,2.93
2022-11-23T07:05:41.283Z,3.00
2022-11-23T07:08:08.884Z,3.13
2022-11-23T07:10:36.154Z,2.87
2022-11-23T07:13:09.296Z,2.50
2022-11-23T07:15:38.119Z,2.70
2022-11-23T07:18:07.090Z,2.73
2022-11-23T07:20:36.242Z,2.07
2022-11-23T07:23:08.079Z,2.57
2022-11-23T07:25:37.252Z,2.37
2022-11-23T07:28:06.939Z,2.43
2022-11-23T07:30:35.800Z,1.90
2022-11-23T07:33:08.306Z,2.47
2022-11-23T07:35:40.011Z,2.30
2022-11-23T07:38:10.577Z,2.30
2022-11-23T07:40:39.198Z,2.33
2022-11-23T07:43:12.768Z,2.33
2022-11-23T07:45:39.911Z,2.37
2022-11-23T07:48:10.150Z,2.40
2022-11-23T07:50:38.586Z,5.73
2022-11-23T07:53:07.419Z,2.50
2022-11-23T07:55:34.841Z,2.60
2022-11-23T07:58:02.739Z,2.30
2022-11-23T08:00:30.343Z,2.50
2022-11-23T08:03:26.028Z,2.07
2022-11-23T08:05:46.392Z,2.00
2022-11-23T08:08:13.703Z,2.40
2022-11-23T08:10:45.301Z,1.90
2022-11-23T08:13:15.653Z,2.27
2022-11-23T08:15:42.950Z,2.30
2022-11-23T08:18:10.214Z,2.67
2022-11-23T08:20:37.366Z,2.60
2022-11-23T08:23:04.587Z,2.00
2022-11-23T08:25:31.791Z,2.40
2022-11-23T08:28:01.282Z,2.37
2022-11-23T08:30:30.403Z,2.40
2022-11-23T08:32:57.670Z,2.57
2022-11-23T08:35:24.941Z,2.27
2022-11-23T08:37:52.129Z,2.43
2022-11-23T08:40:24.730Z,2.20
2022-11-23T08:42:52.763Z,2.10
2022-11-23T08:45:20.021Z,2.30
2022-11-23T08:47:47.228Z,2.40
2022-11-23T08:50:14.766Z,2.40
2022-11-23T08:52:41.983Z,2.10
2022-11-23T08:55:09.744Z,2.20
2022-11-23T08:57:36.911Z,2.40
2022-11-23T09:00:05.655Z,1.87
2022-11-23T09:02:32.948Z,2.30
2022-11-23T09:05:00.731Z,2.37
2022-11-23T09:07:28.135Z,2.20
2022-11-23T09:09:55.347Z,2.30
2022-11-23T09:12:22.539Z,2.20
2022-11-23T09:14:49.720Z,2.43
2022-11-23T09:17:16.872Z,2.10
2022-11-23T09:19:44.070Z,2.13
2022-11-23T09:22:11.184Z,2.63
2022-11-23T09:24:38.414Z,2.20
2022-11-23T09:27:05.646Z,2.03
2022-11-23T09:29:32.770Z,1.87
2022-11-23T09:32:01.585Z,2.30
2022-11-23T09:34:28.733Z,2.20
2022-11-23T09:36:57.280Z,2.13
2022-11-23T09:39:24.434Z,2.10
2022-11-23T09:42:34.555Z,2.00
2022-11-23T09:45:14.207Z,2.17
2022-11-23T09:47:49.877Z,2.10
2022-11-23T09:50:41.673Z,1.93
2022-11-23T09:53:15.935Z,2.17
2022-11-23T09:55:45.992Z,2.50
2022-11-23T09:58:19.923Z,2.20
2022-11-23T10:01:14.794Z,2.10
2022-11-23T10:03:48.745Z,2.33
2022-11-23T10:06:25.638Z,2.10
2022-11-23T10:09:16.782Z,2.20
2022-11-23T10:12:17.528Z,1.80
2022-11-23T10:15:13.936Z,1.87
2022-11-23T10:18:07.774Z,1.67
2022-11-23T10:20:54.006Z,1.80
2022-11-23T10:23:54.473Z,1.97
2022-11-23T10:26:35.287Z,1.73
2022-11-23T10:29:30.370Z,1.40
2022-11-23T10:31:58.785Z,1.43
2022-11-23T10:34:34.930Z,1.73
2022-11-23T10:37:02.214Z,1.47
2022-11-23T10:39:30.195Z,1.50
2022-11-23T10:42:04.811Z,1.70
2022-11-23T10:44:36.874Z,1.60
2022-11-23T10:47:05.094Z,1.30
2022-11-23T10:49:34.872Z,1.47
2022-11-23T10:52:08.561Z,1.60
2022-11-23T10:54:37.281Z,1.40
2022-11-23T10:57:42.631Z,1.33
2022-11-23T11:00:15.698Z,1.80
2022-11-23T11:02:46.209Z,1.50
2022-11-23T11:05:35.501Z,1.73
2022-11-23T11:08:18.193Z,1.60
2022-11-23T11:10:56.886Z,1.60
2022-11-23T11:13:32.562Z,1.60
2022-11-23T11:16:05.911Z,1.80
2022-11-23T11:18:35.441Z,1.60
2022-11-23T11:21:17.000Z,1.70
2022-11-23T11:23:52.652Z,1.50
2022-11-23T11:26:25.679Z,1.43
2022-11-23T11:28:55.491Z,1.90
2022-11-23T11:31:30.052Z,1.60
2022-11-23T11:34:16.378Z,1.70
2022-11-23T11:37:08.906Z,1.37
2022-11-23T11:39:49.326Z,1.63
2022-11-23T11:42:27.094Z,1.67
2022-11-23T11:44:56.854Z,1.50
2022-11-23T11:47:32.162Z,1.50
2022-11-23T11:50:02.588Z,1.40
2022-11-23T11:52:37.375Z,1.40
2022-11-23T11:55:14.912Z,1.60
2022-11-23T11:57:52.458Z,1.60
2022-11-23T12:00:21.029Z,1.80
2022-11-23T12:03:14.029Z,1.90
2022-11-23T12:05:51.078Z,1.53
2022-11-23T12:08:18.186Z,1.30
2022-11-23T12:11:00.116Z,1.80
2022-11-23T12:13:35.866Z,1.43
2022-11-23T12:16:36.838Z,1.60
2022-11-23T12:19:45.355Z,1.50
2022-11-23T12:22:44.775Z,1.43
2022-11-23T12:25:15.190Z,1.30
2022-11-23T12:28:09.224Z,1.60
2022-11-23T12:31:02.883Z,1.37
2022-11-23T12:33:33.033Z,1.50
2022-11-23T12:37:00.644Z,1.50
2022-11-23T12:39:49.756Z,1.50
2022-11-23T12:42:31.778Z,1.60
2022-11-23T12:45:32.412Z,1.50
2022-11-23T12:48:15.607Z,1.50
2022-11-23T12:50:48.733Z,1.47
2022-11-23T12:53:31.133Z,2.70
2022-11-23T12:56:10.471Z,1.50
2022-11-23T12:58:39.230Z,1.30
2022-11-23T13:01:14.995Z,1.50
2022-11-23T13:03:45.152Z,2.27
2022-11-23T13:06:27.634Z,2.10
2022-11-23T13:09:13.943Z,1.53
2022-11-23T13:11:53.011Z,2.00
2022-11-23T13:14:35.329Z,1.53
2022-11-23T13:17:10.181Z,2.00
2022-11-23T13:19:49.542Z,3.37
2022-11-23T13:22:20.066Z,1.43
2022-11-23T13:25:08.437Z,8.13
2022-11-23T13:27:54.393Z,4.57
2022-11-23T13:30:45.569Z,6.87
2022-11-23T13:33:22.264Z,5.00
2022-11-23T13:36:03.507Z,2.00
2022-11-23T13:38:40.285Z,5.40
2022-11-23T13:41:33.627Z,2.10
2022-11-23T13:44:19.608Z,1.53
2022-11-23T13:47:17.254Z,1.90
2022-11-23T13:49:47.000Z,1.77
2022-11-23T13:52:25.277Z,1.50
2022-11-23T13:55:11.199Z,1.57
2022-11-23T13:57:43.281Z,3.90
2022-11-23T14:00:48.215Z,1.77
2022-11-23T14:03:43.881Z,1.90
2022-11-23T14:06:47.280Z,4.10
2022-11-23T14:09:23.570Z,1.70
2022-11-23T14:12:06.704Z,1.70
2022-11-23T14:14:42.882Z,2.63
2022-11-23T14:17:22.091Z,2.00
2022-11-23T14:20:32.514Z,1.90
2022-11-23T14:23:18.521Z,1.93
2022-11-23T14:26:02.971Z,1.53
2022-11-23T14:29:14.251Z,2.13
2022-11-23T14:31:56.588Z,2.80
2022-11-23T14:34:31.763Z,4.57
2022-11-23T14:37:28.389Z,2.90
2022-11-23T14:40:11.418Z,2.50
2022-11-23T14:42:44.835Z,5.93
2022-11-23T14:45:14.840Z,2.50
2022-11-23T14:47:42.591Z,2.40
2022-11-23T14:50:23.594Z,2.20
2022-11-23T14:52:52.914Z,2.00
2022-11-23T14:55:23.602Z,2.07
2022-11-23T14:57:55.619Z,2.07
2022-11-23T15:00:37.332Z,2.67
2022-11-23T15:06:15.374Z,2.57
2022-11-23T15:09:15.728Z,2.10
2022-11-23T15:11:42.912Z,2.10
2022-11-23T15:14:25.216Z,3.23
2022-11-23T15:16:52.811Z,3.40
2022-11-23T15:19:30.006Z,2.43
2022-11-23T15:21:57.515Z,2.37
2022-11-23T15:24:26.935Z,2.37
2022-11-23T15:27:08.050Z,2.63
2022-11-23T15:29:39.153Z,5.00
2022-11-23T15:32:32.114Z,2.50
2022-11-23T15:35:12.872Z,2.40
2022-11-23T15:37:48.596Z,2.30
2022-11-23T15:40:18.416Z,2.47
2022-11-23T15:42:48.368Z,2.47
2022-11-23T15:45:35.720Z,2.53
2022-11-23T15:48:04.973Z,2.50
2022-11-23T15:50:34.298Z,2.50
2022-11-23T15:53:02.370Z,2.50
2022-11-23T15:55:30.551Z,3.00
2022-11-23T15:57:58.987Z,2.53
2022-11-23T16:00:26.335Z,2.73
2022-11-23T16:03:13.933Z,7.50
2022-11-23T16:05:41.121Z,3.20
2022-11-23T16:08:24.630Z,3.20
2022-11-23T16:10:54.816Z,3.27
2022-11-23T16:13:39.060Z,2.63
2022-11-23T16:16:14.639Z,2.97
2022-11-23T16:18:46.950Z,2.43
2022-11-23T16:21:17.635Z,2.60
2022-11-23T16:23:54.765Z,2.83
2022-11-23T16:26:33.403Z,2.63
2022-11-23T16:29:01.254Z,3.40
2022-11-23T16:31:35.322Z,3.80
2022-11-23T16:34:02.779Z,3.47
2022-11-23T16:36:30.004Z,3.30
2022-11-23T16:39:01.013Z,3.67
2022-11-23T16:41:29.653Z,3.20
2022-11-23T16:43:56.813Z,3.83
2022-11-23T16:46:24.010Z,3.80
2022-11-23T16:48:54.010Z,4.50
2022-11-23T16:51:21.159Z,4.30
2022-11-23T16:54:12.594Z,4.70
2022-11-23T16:56:35.729Z,4.53
2022-11-23T16:59:02.966Z,4.37
2022-11-23T17:01:32.439Z,5.03
2022-11-23T17:03:59.887Z,4.17
2022-11-23T17:06:27.192Z,4.47
2022-11-23T17:09:03.247Z,5.10
2022-11-23T17:11:37.062Z,4.97
2022-11-23T17:14:05.215Z,4.63
2022-11-23T17:16:34.160Z,6.03
2022-11-23T17:19:01.444Z,5.67
2022-11-23T17:21:28.717Z,5.73
2022-11-23T17:23:56.374Z,5.63
2022-11-23T17:26:38.439Z,5.70
2022-11-23T17:29:11.177Z,5.77
2022-11-23T17:31:38.584Z,5.37
2022-11-23T17:34:05.744Z,6.77
2022-11-23T17:36:33.398Z,6.20
2022-11-23T17:39:00.670Z,6.30
2022-11-23T17:41:28.323Z,6.00
2022-11-23T17:43:55.509Z,6.87
2022-11-23T17:46:24.123Z,6.87
2022-11-23T17:48:55.402Z,6.50
2022-11-23T17:51:23.252Z,7.17
2022-11-23T17:53:50.914Z,7.23
2022-11-23T17:56:20.984Z,6.30
2022-11-23T17:58:49.101Z,7.60
2022-11-23T18:01:17.987Z,6.60
2022-11-23T18:03:45.849Z,7.00
2022-11-23T18:06:19.527Z,6.83
2022-11-23T18:08:47.778Z,5.93
2022-11-23T18:11:15.700Z,7.30
2022-11-23T18:13:43.813Z,6.40
2022-11-23T18:16:11.225Z,7.63
2022-11-23T18:18:39.028Z,9.00
2022-11-23T18:21:06.983Z,9.30
2022-11-23T18:23:34.235Z,10.17
2022-11-23T18:26:05.402Z,11.20
2022-11-23T18:28:32.553Z,10.70
2022-11-23T18:30:59.893Z,10.67
2022-11-23T18:33:27.145Z,9.23
2022-11-23T18:35:54.320Z,9.10
2022-11-23T18:38:21.564Z,9.70
2022-11-23T18:40:48.797Z,9.00
2022-11-23T18:45:59.547Z,8.53
2022-11-23T18:48:27.235Z,8.13
2022-11-23T18:50:54.421Z,8.07
2022-11-23T18:53:21.635Z,8.13
2022-11-23T18:55:49.513Z,7.43
2022-11-23T18:58:17.787Z,8.90
2022-11-23T19:00:45.152Z,8.20
2022-11-23T19:03:12.731Z,9.30
2022-11-23T19:05:39.956Z,8.23
2022-11-23T19:08:08.622Z,8.40
2022-11-23T19:10:38.189Z,8.47
2022-11-23T19:13:06.179Z,15.93
2022-11-23T19:15:33.760Z,9.50
2022-11-23T19:18:01.159Z,8.33
2022-11-23T19:20:29.243Z,6.87
2022-11-23T19:22:56.411Z,6.57
2022-11-23T19:25:24.786Z,6.70
2022-11-23T19:27:52.726Z,6.33
2022-11-23T19:30:19.924Z,5.43
2022-11-23T19:32:47.221Z,5.60
2022-11-23T19:35:14.479Z,5.23
2022-11-23T19:37:41.630Z,4.87
2022-11-23T19:40:09.275Z,4.80
2022-11-23T19:42:36.647Z,5.13
2022-11-23T19:45:04.787Z,4.57
2022-11-23T19:47:32.069Z,4.27
2022-11-23T19:49:59.415Z,3.93
2022-11-23T19:52:48.019Z,3.90
2022-11-23T19:55:15.935Z,3.73
2022-11-23T19:57:43.091Z,3.50
2022-11-23T20:00:10.864Z,3.70
2022-11-23T20:02:39.140Z,3.47
2022-11-23T20:05:07.915Z,3.10
2022-11-23T20:07:35.181Z,3.30
2022-11-23T20:10:02.515Z,3.37
2022-11-23T20:12:29.656Z,3.00
2022-11-23T20:14:57.802Z,3.27
2022-11-23T20:17:24.971Z,2.90
2022-11-23T20:19:53.112Z,3.60
2022-11-23T20:22:20.286Z,7.93
2022-11-23T20:24:47.406Z,3.50
2022-11-23T20:27:14.522Z,2.50
2022-11-23T20:29:41.867Z,2.93
2022-11-23T20:32:09.066Z,3.30
2022-11-23T20:34:36.419Z,2.77
2022-11-23T20:37:05.621Z,3.43
2022-11-23T20:39:32.814Z,2.60
2022-11-23T20:42:01.663Z,2.70
2022-11-23T20:44:33.747Z,2.43
2022-11-23T20:47:02.667Z,2.70
2022-11-23T20:49:31.398Z,2.60
2022-11-23T20:51:59.739Z,2.47
2022-11-23T20:54:27.203Z,2.53
2022-11-23T20:56:54.579Z,2.60
2022-11-23T20:59:23.668Z,2.50
2022-11-23T21:01:51.342Z,2.40
2022-11-23T21:04:18.526Z,2.60
2022-11-23T21:06:45.721Z,2.27
2022-11-23T21:09:12.870Z,2.53
2022-11-23T21:11:58.874Z,2.23
2022-11-23T21:14:30.475Z,2.53
2022-11-23T21:16:59.786Z,2.20
2022-11-23T21:19:30.924Z,2.10
2022-11-23T21:22:02.183Z,2.33
2022-11-23T21:24:29.527Z,1.97
2022-11-23T21:26:56.712Z,2.17
2022-11-23T21:29:23.927Z,2.10
2022-11-23T21:31:51.156Z,2.40
2022-11-23T21:34:26.863Z,2.47
2022-11-23T21:36:55.275Z,2.50
2022-11-23T21:39:23.326Z,2.10
2022-11-23T21:41:52.206Z,2.50
2022-11-23T21:44:20.369Z,2.30
2022-11-23T21:46:48.418Z,2.10
2022-11-23T21:49:15.578Z,2.40
2022-11-23T21:51:43.571Z,2.23
2022-11-23T21:54:13.971Z,1.73
2022-11-23T21:56:42.867Z,1.90
2022-11-23T21:59:11.579Z,1.90
2022-11-23T22:01:39.732Z,2.20
2022-11-23T22:04:12.409Z,2.10
2022-11-23T22:06:40.380Z,1.93
2022-11-23T22:09:09.455Z,2.27
2022-11-23T22:11:39.413Z,2.13
2022-11-23T22:14:09.614Z,2.30
2022-11-23T22:16:45.224Z,2.10
2022-11-23T22:19:14.873Z,2.10
2022-11-23T22:21:44.164Z,2.30
2022-11-23T22:24:13.789Z,2.10
2022-11-23T22:26:41.558Z,2.10
2022-11-23T22:29:09.247Z,2.13
2022-11-23T22:31:36.575Z,2.20
2022-11-23T22:34:06.533Z,1.83
2022-11-23T22:36:33.742Z,2.23
2022-11-23T22:39:04.163Z,2.47
2022-11-23T22:41:39.415Z,2.60
2022-11-23T22:44:08.488Z,2.93
2022-11-23T22:46:36.549Z,2.67
2022-11-23T22:49:04.400Z,2.83
2022-11-23T22:51:31.643Z,2.90
2022-11-23T22:54:00.290Z,3.77
2022-11-23T22:56:29.175Z,2.43
2022-11-23T22:58:56.748Z,2.93
2022-11-23T23:01:26.808Z,2.77
2022-11-23T23:03:59.256Z,2.90
2022-11-23T23:06:29.979Z,2.70
2022-11-23T23:08:59.404Z,2.90
2022-11-23T23:11:29.247Z,4.63
2022-11-23T23:13:56.698Z,2.67
2022-11-23T23:16:24.442Z,3.30
2022-11-23T23:18:52.084Z,4.30
2022-11-23T23:21:21.732Z,4.07
2022-11-23T23:23:51.406Z,5.90
2022-11-23T23:26:20.543Z,3.43
2022-11-23T23:28:48.665Z,2.80
2022-11-23T23:31:17.091Z,3.87
2022-11-23T23:33:45.775Z,4.30
2022-11-23T23:36:15.166Z,2.53
2022-11-23T23:38:42.549Z,3.17
2022-11-23T23:41:11.590Z,2.60
2022-11-23T23:43:39.454Z,2.57
2022-11-23T23:46:08.778Z,2.80
2022-11-23T23:48:37.879Z,2.73
2022-11-23T23:51:06.150Z,4.80
2022-11-23T23:53:34.571Z,2.90
2022-11-23T23:56:05.313Z,2.73
2022-11-23T23:58:32.504Z,5.00
